Osage, Oklahoma
Current Conditions -  °F | °C
As of 6:15 PM on Friday 21 Nov 2014 (Local Time) from KOWP Reporting Station
Overcast Overcast  
Wind Chill: 56°   Ceiling: 1200
Heat Index: 56°   Visibility: 10mi
Dew Point: 49°   Wind: 14mph
Humidity: 77%   Direction: 140°SE
Pressure: 30.07"   Gusts: 17mph
Location:  36.3°N, 96.41°W
Report Text: KOWP 220015Z AUTO 14012G15KT 10SM OVC012 14/10 A3007 RMK AO2 T01350095
Loading
Personal Weather Stations






























Interactive Weather Map New forecast layout! Learn more

10-Day Weather Forecast

Advertisements
Track Severe Weather on mobile